createdAt,value
2023-04-16T00:01:17.698Z,96521.66
2023-04-16T00:03:22.881Z,96516.66
2023-04-16T00:05:28.098Z,96522.72
2023-04-16T00:07:33.358Z,96514.81
2023-04-16T00:09:41.008Z,96515.63
2023-04-16T00:11:45.865Z,96520.34
2023-04-16T00:13:50.735Z,96521.13
2023-04-16T00:15:55.787Z,96524.25
2023-04-16T00:18:00.785Z,96527.69
2023-04-16T00:20:06.276Z,96531.38
2023-04-16T00:22:11.153Z,96529.03
2023-04-16T00:24:16.349Z,96528.25
2023-04-16T00:26:23.735Z,96530.06
2023-04-16T00:28:28.626Z,96527.72
2023-04-16T00:30:33.475Z,96535.59
2023-04-16T00:32:38.305Z,96540.09
2023-04-16T00:34:43.103Z,96535.38
2023-04-16T00:36:47.947Z,96533.03
2023-04-16T00:38:52.953Z,96528.03
2023-04-16T00:40:58.964Z,96529.06
2023-04-16T00:43:06.450Z,96530.13
2023-04-16T00:45:13.326Z,96531.19
2023-04-16T00:47:18.197Z,96544.09
2023-04-16T00:49:23.434Z,96527.00
2023-04-16T00:51:28.385Z,96529.09
2023-04-16T00:53:34.407Z,96541.47
2023-04-16T00:55:39.490Z,96538.63
2023-04-16T00:57:44.411Z,96538.06
2023-04-16T00:59:51.767Z,96533.34
2023-04-16T01:01:56.727Z,96541.53
2023-04-16T01:04:01.840Z,96540.22
2023-04-16T01:06:07.486Z,96542.63
2023-04-16T01:08:18.995Z,96540.53
2023-04-16T01:10:23.904Z,96539.22
2023-04-16T01:12:28.690Z,96543.94
2023-04-16T01:14:36.578Z,96543.44
2023-04-16T01:16:44.178Z,96546.34
2023-04-16T01:18:49.096Z,96549.75
2023-04-16T01:20:56.723Z,96551.88
2023-04-16T01:23:01.481Z,96546.88
2023-04-16T01:25:06.491Z,96556.09
2023-04-16T01:27:11.549Z,96548.75
2023-04-16T01:29:16.375Z,96554.28
2023-04-16T01:31:21.510Z,96555.59
2023-04-16T01:33:33.387Z,96554.00
2023-04-16T01:35:38.230Z,96554.81
2023-04-16T01:37:45.713Z,96554.28
2023-04-16T01:39:50.661Z,96554.53
2023-04-16T01:41:55.618Z,96550.09
2023-04-16T01:44:00.605Z,96560.34
2023-04-16T01:46:16.587Z,96562.72
2023-04-16T01:48:21.458Z,96564.81
2023-04-16T01:50:26.909Z,96569.03
2023-04-16T01:52:31.812Z,96561.97
2023-04-16T01:54:39.330Z,96564.31
2023-04-16T01:56:44.340Z,96559.84
2023-04-16T01:58:49.365Z,96566.16
2023-04-16T02:00:56.009Z,96565.38
2023-04-16T02:03:01.572Z,96557.50
2023-04-16T02:05:07.411Z,96562.75
2023-04-16T02:07:14.206Z,96556.69
2023-04-16T02:09:19.231Z,96554.06
2023-04-16T02:11:26.828Z,96559.31
2023-04-16T02:13:32.742Z,96556.19
2023-04-16T02:15:37.503Z,96556.97
2023-04-16T02:17:42.411Z,96562.75
2023-04-16T02:19:48.580Z,96561.69
2023-04-16T02:21:55.043Z,96562.75
2023-04-16T02:23:59.833Z,96564.59
2023-04-16T02:26:08.153Z,96567.47
2023-04-16T02:28:16.845Z,96566.72
2023-04-16T02:30:23.740Z,96570.13
2023-04-16T02:32:30.389Z,96569.84
2023-04-16T02:34:35.655Z,96576.44
2023-04-16T02:36:41.075Z,96569.34
2023-04-16T02:38:46.015Z,96567.22
2023-04-16T02:40:51.031Z,96576.69
2023-04-16T02:42:55.975Z,96571.44
2023-04-16T02:45:03.443Z,96571.69
2023-04-16T02:47:08.373Z,96574.06
2023-04-16T02:49:13.158Z,96578.00
2023-04-16T02:51:18.120Z,96578.00
2023-04-16T02:53:22.967Z,96588.53
2023-04-16T02:55:29.607Z,96586.94
2023-04-16T02:57:34.526Z,96588.00
2023-04-16T02:59:39.463Z,96587.22
2023-04-16T03:01:47.084Z,96585.38
2023-04-16T03:03:52.020Z,96584.31
2023-04-16T03:05:56.819Z,96586.94
2023-04-16T03:08:01.670Z,96585.91
2023-04-16T03:10:07.328Z,96587.22
2023-04-16T03:12:12.348Z,96589.06
2023-04-16T03:14:17.207Z,96596.97
2023-04-16T03:16:22.070Z,96598.78
2023-04-16T03:18:29.522Z,96598.00
2023-04-16T03:20:34.547Z,96596.97
2023-04-16T03:22:39.474Z,96601.16
2023-04-16T03:24:44.253Z,96597.47
2023-04-16T03:26:49.026Z,96602.75
2023-04-16T03:28:54.010Z,96607.22
2023-04-16T03:30:58.784Z,96596.97
2023-04-16T03:33:03.808Z,96601.16
2023-04-16T03:35:12.867Z,96599.06
2023-04-16T03:37:17.923Z,96593.28
2023-04-16T03:39:23.020Z,96596.19
2023-04-16T03:41:27.817Z,96597.22
2023-04-16T03:43:32.724Z,96597.75
2023-04-16T03:45:37.694Z,96591.97
2023-04-16T03:47:42.882Z,96600.91
2023-04-16T03:49:48.092Z,96600.91
2023-04-16T03:51:55.715Z,96599.34
2023-04-16T03:54:00.746Z,96601.97
2023-04-16T03:56:06.845Z,96607.25
2023-04-16T03:58:11.838Z,96604.59
2023-04-16T04:00:17.096Z,96603.78
2023-04-16T04:02:51.434Z,96611.16
2023-04-16T04:04:58.511Z,96616.16
2023-04-16T04:07:06.046Z,96613.78
2023-04-16T04:09:11.184Z,96615.38
2023-04-16T04:11:16.162Z,96616.94
2023-04-16T04:13:22.710Z,96617.50
2023-04-16T04:15:29.208Z,96621.94
2023-04-16T04:17:34.103Z,96626.44
2023-04-16T04:19:44.528Z,96629.84
2023-04-16T04:21:55.937Z,96623.03
2023-04-16T04:24:03.535Z,96620.63
2023-04-16T04:26:08.593Z,96623.81
2023-04-16T04:28:13.451Z,96625.38
2023-04-16T04:30:18.324Z,96631.16
2023-04-16T04:32:23.124Z,96626.44
2023-04-16T04:34:28.266Z,96621.69
2023-04-16T04:36:36.046Z,96631.16
2023-04-16T04:38:41.115Z,96636.44
2023-04-16T04:40:48.529Z,96636.94
2023-04-16T04:42:55.747Z,96645.66
2023-04-16T04:45:01.790Z,96645.88
2023-04-16T04:47:09.383Z,96651.97
2023-04-16T04:49:14.170Z,96654.59
2023-04-16T04:51:19.004Z,96650.09
2023-04-16T04:53:25.206Z,96657.22
2023-04-16T04:55:30.163Z,96659.03
2023-04-16T04:57:39.283Z,96669.56
2023-04-16T04:59:44.122Z,96673.28
2023-04-16T05:01:50.581Z,96682.22
2023-04-16T05:03:55.438Z,96676.94
2023-04-16T05:06:00.229Z,96684.84
2023-04-16T05:08:05.143Z,96683.00
2023-04-16T05:10:11.965Z,96689.06
2023-04-16T05:12:17.365Z,96684.84
2023-04-16T05:14:24.746Z,96683.25
2023-04-16T05:16:29.553Z,96687.72
2023-04-16T05:18:34.377Z,96689.59
2023-04-16T05:20:39.819Z,96686.16
2023-04-16T05:22:44.865Z,96692.22
2023-04-16T05:24:49.619Z,96692.22
2023-04-16T05:26:54.399Z,96687.72
2023-04-16T05:28:59.216Z,96697.22
2023-04-16T05:31:06.699Z,96697.47
2023-04-16T05:33:11.737Z,96701.66
2023-04-16T05:35:17.606Z,96701.94
2023-04-16T05:37:22.680Z,96699.03
2023-04-16T05:39:27.531Z,96704.84
2023-04-16T05:41:32.538Z,96705.09
2023-04-16T05:43:37.307Z,96702.47
2023-04-16T05:45:42.446Z,96707.47
2023-04-16T05:47:50.033Z,96711.94
2023-04-16T05:49:54.969Z,96701.41
2023-04-16T05:51:59.788Z,96710.38
2023-04-16T05:54:04.633Z,96705.38
2023-04-16T05:56:10.557Z,96707.19
2023-04-16T05:58:15.346Z,96708.78
2023-04-16T06:00:20.671Z,96710.63
2023-04-16T06:02:25.679Z,96704.03
2023-04-16T06:04:33.509Z,96714.81
2023-04-16T06:06:38.785Z,96718.78
2023-04-16T06:08:43.523Z,96717.97
2023-04-16T06:10:50.006Z,96714.31
2023-04-16T06:12:55.056Z,96713.28
2023-04-16T06:14:59.812Z,96714.03
2023-04-16T06:17:04.576Z,96718.25
2023-04-16T06:19:09.903Z,96721.69
2023-04-16T06:21:17.458Z,96719.31
2023-04-16T06:23:22.251Z,96720.09
2023-04-16T06:25:27.078Z,96721.16
2023-04-16T06:27:32.188Z,96726.16
2023-04-16T06:29:41.153Z,96726.41
2023-04-16T06:31:46.778Z,96721.41
2023-04-16T06:33:51.523Z,96727.44
2023-04-16T06:35:56.858Z,96725.63
2023-04-16T06:38:04.231Z,96729.03
2023-04-16T06:40:10.493Z,96732.72
2023-04-16T06:42:15.633Z,96735.09
2023-04-16T06:44:21.065Z,96736.69
2023-04-16T06:46:25.941Z,96737.19
2023-04-16T06:48:30.998Z,96742.19
2023-04-16T06:50:36.034Z,96739.56
2023-04-16T06:52:41.057Z,96744.84
2023-04-16T06:54:48.464Z,96736.66
2023-04-16T06:56:53.332Z,96746.16
2023-04-16T06:58:59.085Z,96746.66
2023-04-16T07:01:04.204Z,96746.66
2023-04-16T07:03:09.200Z,96742.22
2023-04-16T07:05:14.210Z,96754.03
2023-04-16T07:07:18.992Z,96744.06
2023-04-16T07:09:23.843Z,96745.38
2023-04-16T07:11:31.723Z,96747.75
2023-04-16T07:13:36.662Z,96751.16
2023-04-16T07:15:41.429Z,96745.88
2023-04-16T07:17:47.318Z,96742.22
2023-04-16T07:19:52.155Z,96743.78
2023-04-16T07:21:57.193Z,96749.84
2023-04-16T07:24:02.030Z,96746.16
2023-04-16T07:26:06.904Z,96749.81
2023-04-16T07:28:16.746Z,96746.94
2023-04-16T07:30:21.702Z,96743.00
2023-04-16T07:32:27.042Z,96750.34
2023-04-16T07:34:31.898Z,96750.91
2023-04-16T07:36:36.654Z,96748.50
2023-04-16T07:38:41.494Z,96751.69
2023-04-16T07:40:46.403Z,96752.72
2023-04-16T07:42:51.430Z,96742.19
2023-04-16T07:44:58.807Z,96762.72
2023-04-16T07:47:05.400Z,96749.81
2023-04-16T07:49:10.731Z,96759.28
2023-04-16T07:51:15.766Z,96754.56
2023-04-16T07:53:20.684Z,96760.84
2023-04-16T07:55:25.708Z,96761.38
2023-04-16T07:57:30.455Z,96760.84
2023-04-16T07:59:35.292Z,96767.44
2023-04-16T08:01:42.691Z,96763.50
2023-04-16T08:03:47.645Z,96767.41
2023-04-16T08:05:52.846Z,96774.00
2023-04-16T08:07:57.728Z,96766.09
2023-04-16T08:10:02.610Z,96773.72
2023-04-16T08:12:07.909Z,96777.69
2023-04-16T08:14:12.735Z,96785.84
2023-04-16T08:16:17.721Z,96793.75
2023-04-16T08:18:25.425Z,96788.75
2023-04-16T08:20:30.463Z,96797.19
2023-04-16T08:22:35.898Z,96801.41
2023-04-16T08:24:40.713Z,96796.16
2023-04-16T08:26:45.487Z,96798.25
2023-04-16T08:28:50.298Z,96799.84
2023-04-16T08:30:55.572Z,96801.41
2023-04-16T08:33:01.502Z,96800.38
2023-04-16T08:35:09.653Z,96802.75
2023-04-16T08:37:14.512Z,96811.16
2023-04-16T08:39:19.369Z,96809.84
2023-04-16T08:41:27.114Z,96813.25
2023-04-16T08:43:36.271Z,96814.31
2023-04-16T08:45:41.621Z,96814.84
2023-04-16T08:47:49.678Z,96814.59
2023-04-16T08:49:58.507Z,96819.81
2023-04-16T08:52:09.499Z,96816.41
2023-04-16T08:54:21.478Z,96825.34
2023-04-16T08:56:27.643Z,96819.81
2023-04-16T08:58:35.822Z,96819.25
2023-04-16T09:00:42.399Z,96822.16
2023-04-16T09:02:47.742Z,96823.47
2023-04-16T09:04:54.116Z,96819.50
2023-04-16T09:07:01.627Z,96825.06
2023-04-16T09:09:10.779Z,96829.25
2023-04-16T09:11:16.826Z,96826.34
2023-04-16T09:13:23.684Z,96826.34
2023-04-16T09:15:29.686Z,96826.06
2023-04-16T09:17:34.523Z,96835.06
2023-04-16T09:19:39.342Z,96830.06
2023-04-16T09:21:44.998Z,96832.41
2023-04-16T09:23:50.644Z,96833.72
2023-04-16T09:25:58.839Z,96832.16
2023-04-16T09:28:03.700Z,96836.06
2023-04-16T09:30:22.853Z,96835.03
2023-04-16T09:32:29.299Z,96838.72
2023-04-16T09:34:36.155Z,96830.81
2023-04-16T09:36:40.975Z,96839.22
2023-04-16T09:38:49.635Z,96837.38
2023-04-16T09:41:10.024Z,96844.50
2023-04-16T09:43:15.881Z,96832.91
2023-04-16T09:45:21.032Z,96840.81
2023-04-16T09:47:26.664Z,96837.34
2023-04-16T09:49:31.709Z,96833.66
2023-04-16T09:51:40.142Z,96833.66
2023-04-16T09:53:45.138Z,96835.78
2023-04-16T09:55:49.950Z,96841.34
2023-04-16T09:58:04.614Z,96845.25
2023-04-16T10:00:12.063Z,96836.56
2023-04-16T10:02:16.900Z,96839.72
2023-04-16T10:04:22.543Z,96837.06
2023-04-16T10:06:28.316Z,96846.31
2023-04-16T10:08:33.123Z,96839.72
2023-04-16T10:10:37.984Z,96843.66
2023-04-16T10:12:43.818Z,96844.94
2023-04-16T10:14:51.675Z,96849.72
2023-04-16T10:16:56.937Z,96862.63
2023-04-16T10:19:02.487Z,96861.81
2023-04-16T10:21:08.669Z,96858.13
2023-04-16T10:23:14.790Z,96858.13
2023-04-16T10:25:20.337Z,96857.34
2023-04-16T10:27:25.857Z,96856.28
2023-04-16T10:29:32.762Z,96858.63
2023-04-16T10:31:41.569Z,96858.91
2023-04-16T10:33:47.612Z,96861.03
2023-04-16T10:36:06.740Z,96853.41
2023-04-16T10:38:26.074Z,96863.16
2023-04-16T10:40:31.003Z,96860.00
2023-04-16T10:42:35.785Z,96867.91
2023-04-16T10:44:43.446Z,96861.56
2023-04-16T10:46:52.604Z,96856.81
2023-04-16T10:48:59.066Z,96868.16
2023-04-16T10:51:03.978Z,96864.72
2023-04-16T10:53:23.013Z,96866.06
2023-04-16T10:55:28.293Z,96868.69
2023-04-16T10:57:33.696Z,96863.94
2023-04-16T10:59:40.540Z,96862.91
2023-04-16T11:01:46.870Z,96866.31
2023-04-16T11:03:55.235Z,96863.94
2023-04-16T11:06:14.670Z,96870.81
2023-04-16T11:08:19.401Z,96872.38
2023-04-16T11:10:24.176Z,96871.06
2023-04-16T11:12:35.947Z,96870.53
2023-04-16T11:14:42.065Z,96865.28
2023-04-16T11:16:47.035Z,96870.00
2023-04-16T11:18:56.313Z,96871.28
2023-04-16T11:21:02.031Z,96867.06
2023-04-16T11:23:13.414Z,96869.97
2023-04-16T11:25:22.776Z,96873.91
2023-04-16T11:27:28.189Z,96868.88
2023-04-16T11:29:32.967Z,96873.88
2023-04-16T11:31:38.147Z,96875.47
2023-04-16T11:33:42.961Z,96871.50
2023-04-16T11:35:59.864Z,96872.00
2023-04-16T11:38:06.222Z,96875.94
2023-04-16T11:40:12.706Z,96877.50
2023-04-16T11:42:23.682Z,96873.31
2023-04-16T11:44:30.602Z,96882.53
2023-04-16T11:46:42.481Z,96881.47
2023-04-16T11:48:55.585Z,96884.63
2023-04-16T11:51:03.298Z,96876.72
2023-04-16T11:53:08.797Z,96883.28
2023-04-16T11:55:13.742Z,96874.31
2023-04-16T11:57:27.542Z,96874.81
2023-04-16T11:59:33.425Z,96880.63
2023-04-16T12:01:39.399Z,96885.34
2023-04-16T12:03:46.993Z,96879.81
2023-04-16T12:05:52.274Z,96877.44
2023-04-16T12:08:00.017Z,96882.44
2023-04-16T12:10:11.878Z,96888.50
2023-04-16T12:12:33.356Z,96892.72
2023-04-16T12:14:38.124Z,96881.88
2023-04-16T12:16:42.886Z,96878.97
2023-04-16T12:19:04.140Z,96883.97
2023-04-16T12:21:08.974Z,96887.38
2023-04-16T12:23:26.055Z,96883.16
2023-04-16T12:25:31.690Z,96888.19
2023-04-16T12:27:55.899Z,96883.41
2023-04-16T12:30:08.860Z,96886.84
2023-04-16T12:32:25.133Z,96886.28
2023-04-16T12:34:48.361Z,96891.28
2023-04-16T12:37:11.158Z,96886.28
2023-04-16T12:39:19.293Z,96887.09
2023-04-16T12:41:24.051Z,96884.97
2023-04-16T12:43:29.021Z,96883.91
2023-04-16T12:45:33.785Z,96883.34
2023-04-16T12:47:38.981Z,96894.16
2023-04-16T12:49:44.673Z,96890.44
2023-04-16T12:51:49.882Z,96897.88
2023-04-16T12:53:54.640Z,96900.50
2023-04-16T12:56:02.296Z,96894.41
2023-04-16T12:58:07.702Z,96890.72
2023-04-16T13:00:14.922Z,96891.78
2023-04-16T13:02:19.732Z,96892.88
2023-04-16T13:04:25.969Z,96888.63
2023-04-16T13:06:31.623Z,96889.69
2023-04-16T13:08:36.530Z,96887.31
2023-04-16T13:10:41.374Z,96889.97
2023-04-16T13:12:49.203Z,96886.53
2023-04-16T13:14:54.188Z,96884.69
2023-04-16T13:16:58.925Z,96889.19
2023-04-16T13:19:03.691Z,96883.09
2023-04-16T13:21:08.451Z,96889.19
2023-04-16T13:23:14.196Z,96881.25
2023-04-16T13:25:19.337Z,96885.50
2023-04-16T13:27:24.164Z,96888.91
2023-04-16T13:29:31.539Z,96878.63
2023-04-16T13:31:36.362Z,96879.13
2023-04-16T13:33:41.166Z,96887.06
2023-04-16T13:35:45.956Z,96879.94
2023-04-16T13:37:50.956Z,96880.72
2023-04-16T13:39:56.666Z,96877.28
2023-04-16T13:42:01.486Z,96878.84
2023-04-16T13:44:06.531Z,96876.75
2023-04-16T13:46:13.893Z,96884.38
2023-04-16T13:48:18.945Z,96885.16
2023-04-16T13:50:23.773Z,96887.81
2023-04-16T13:52:28.562Z,96891.22
2023-04-16T13:54:33.701Z,96887.81
2023-04-16T13:56:38.599Z,96883.56
2023-04-16T13:58:43.695Z,96883.84
2023-04-16T14:00:48.553Z,96885.72
2023-04-16T14:02:56.259Z,96889.94
2023-04-16T14:05:01.570Z,96882.53
2023-04-16T14:07:06.366Z,96884.88
2023-04-16T14:09:11.536Z,96883.84
2023-04-16T14:11:16.386Z,96891.22
2023-04-16T14:13:21.197Z,96888.56
2023-04-16T14:15:27.597Z,96893.06
2023-04-16T14:17:32.406Z,96892.25
2023-04-16T14:19:39.750Z,96888.56
2023-04-16T14:21:44.549Z,96890.16
2023-04-16T14:23:49.261Z,96887.22
2023-04-16T14:25:54.086Z,96892.50
2023-04-16T14:27:58.979Z,96885.38
2023-04-16T14:30:03.858Z,96879.31
2023-04-16T14:32:09.501Z,96890.38
2023-04-16T14:34:14.269Z,96889.31
2023-04-16T14:36:21.681Z,96888.25
2023-04-16T14:38:26.685Z,96888.50
2023-04-16T14:40:31.640Z,96889.25
2023-04-16T14:42:36.795Z,96886.63
2023-04-16T14:44:41.677Z,96884.78
2023-04-16T14:46:46.560Z,96887.44
2023-04-16T14:48:51.371Z,96885.00
2023-04-16T14:50:56.630Z,96890.84
2023-04-16T14:53:04.224Z,96895.56
2023-04-16T14:55:10.061Z,96892.63
2023-04-16T14:57:14.805Z,96891.59
2023-04-16T14:59:19.583Z,96893.94
2023-04-16T15:01:24.446Z,96894.72
2023-04-16T15:03:29.739Z,96890.50
2023-04-16T15:05:34.541Z,96891.03
2023-04-16T15:07:39.343Z,96892.59
2023-04-16T15:09:46.657Z,96892.59
2023-04-16T15:11:51.452Z,96887.28
2023-04-16T15:13:56.162Z,96898.16
2023-04-16T15:16:01.043Z,96892.38
2023-04-16T15:18:06.518Z,96890.00
2023-04-16T15:20:13.081Z,96889.47
2023-04-16T15:22:17.803Z,96880.75
2023-04-16T15:24:22.672Z,96876.03
2023-04-16T15:26:29.959Z,96880.25
2023-04-16T15:28:34.770Z,96887.38
2023-04-16T15:30:40.619Z,96890.03
2023-04-16T15:32:46.728Z,96889.75
2023-04-16T15:34:52.076Z,96879.97
2023-04-16T15:36:56.818Z,96880.75
2023-04-16T15:39:01.588Z,96885.78
2023-04-16T15:41:06.431Z,96883.66
2023-04-16T15:43:13.769Z,96889.72
2023-04-16T15:45:19.095Z,96884.72
2023-04-16T15:47:24.050Z,96887.06
2023-04-16T15:49:29.254Z,96900.00
2023-04-16T15:51:34.100Z,96893.94
2023-04-16T15:53:39.098Z,96902.16
2023-04-16T15:55:45.301Z,96901.06
2023-04-16T15:57:50.116Z,96896.03
2023-04-16T16:00:06.525Z,96908.69
2023-04-16T16:02:12.317Z,96903.41
2023-04-16T16:04:17.282Z,96905.25
2023-04-16T16:06:22.331Z,96919.53
2023-04-16T16:08:27.107Z,96914.25
2023-04-16T16:10:31.916Z,96919.00
2023-04-16T16:12:37.525Z,96924.59
2023-04-16T16:14:43.883Z,96921.44
2023-04-16T16:16:51.393Z,96917.22
2023-04-16T16:18:56.665Z,96922.22
2023-04-16T16:21:02.247Z,96923.03
2023-04-16T16:23:07.344Z,96931.44
2023-04-16T16:25:12.965Z,96926.16
2023-04-16T16:27:17.727Z,96925.13
2023-04-16T16:29:22.424Z,96932.22
2023-04-16T16:31:27.408Z,96929.31
2023-04-16T16:33:34.778Z,96931.94
2023-04-16T16:35:39.574Z,96930.13
2023-04-16T16:37:44.477Z,96933.53
2023-04-16T16:39:49.195Z,96932.75
2023-04-16T16:41:54.920Z,96933.81
2023-04-16T16:43:59.797Z,96932.50
2023-04-16T16:46:04.985Z,96937.28
2023-04-16T16:48:10.643Z,96939.16
2023-04-16T16:50:18.098Z,96940.50
2023-04-16T16:52:25.585Z,96953.72
2023-04-16T16:54:30.548Z,96942.59
2023-04-16T16:56:35.348Z,96939.19
2023-04-16T16:58:40.068Z,96940.50
2023-04-16T17:00:45.042Z,96945.28
2023-04-16T17:02:51.545Z,96944.75
2023-04-16T17:04:59.094Z,96950.59
2023-04-16T17:07:06.403Z,96953.53
2023-04-16T17:09:11.553Z,96954.84
2023-04-16T17:11:17.442Z,96949.06
2023-04-16T17:13:22.175Z,96959.41
2023-04-16T17:15:27.145Z,96956.50
2023-04-16T17:17:32.837Z,96959.97
2023-04-16T17:19:37.541Z,96963.94
2023-04-16T17:21:42.341Z,96962.63
2023-04-16T17:23:49.697Z,96967.41
2023-04-16T17:25:54.526Z,96961.84
2023-04-16T17:27:59.245Z,96968.19
2023-04-16T17:30:05.533Z,96972.13
2023-04-16T17:32:10.286Z,96974.78
2023-04-16T17:34:15.115Z,96973.19
2023-04-16T17:36:19.993Z,96974.78
2023-04-16T17:38:24.761Z,96976.63
2023-04-16T17:40:32.049Z,96979.56
2023-04-16T17:42:37.161Z,96983.25
2023-04-16T17:44:41.911Z,96981.16
2023-04-16T17:46:46.611Z,96976.13
2023-04-16T17:48:51.946Z,96984.34
2023-04-16T17:50:56.751Z,96983.28
2023-04-16T17:53:03.917Z,96986.22
2023-04-16T17:55:09.855Z,96989.41
2023-04-16T17:57:17.629Z,96998.41
2023-04-16T17:59:22.575Z,96999.72
2023-04-16T18:01:27.641Z,96993.91
2023-04-16T18:03:32.897Z,96999.72
2023-04-16T18:05:37.884Z,97002.91
2023-04-16T18:07:43.855Z,96999.75
2023-04-16T18:09:48.611Z,97006.63
2023-04-16T18:11:53.424Z,97001.63
2023-04-16T18:14:00.984Z,97004.81
2023-04-16T18:16:07.233Z,97005.34
2023-04-16T18:18:12.238Z,97008.53
2023-04-16T18:20:19.583Z,97010.88
2023-04-16T18:22:26.346Z,97016.69
2023-04-16T18:24:33.559Z,97019.06
2023-04-16T18:26:40.757Z,97019.06
2023-04-16T18:28:46.080Z,97019.88
2023-04-16T18:30:53.486Z,97027.78
2023-04-16T18:35:06.423Z,97029.13
2023-04-16T18:37:11.498Z,97030.41
2023-04-16T18:39:16.479Z,97027.78
2023-04-16T18:41:21.669Z,97028.84
2023-04-16T18:43:27.184Z,97038.59
2023-04-16T18:47:41.651Z,97034.91
2023-04-16T18:49:46.583Z,97034.41
2023-04-16T18:51:51.390Z,97032.28
2023-04-16T18:53:56.285Z,97029.13
2023-04-16T18:56:01.127Z,97032.56
2023-04-16T18:58:06.359Z,97034.69
2023-04-16T19:00:13.008Z,97035.47
2023-04-16T19:02:17.965Z,97037.59
2023-04-16T19:04:25.596Z,97040.50
2023-04-16T19:06:32.070Z,97039.94
2023-04-16T19:08:36.927Z,97048.13
2023-04-16T19:10:41.705Z,97050.75
2023-04-16T19:12:46.452Z,97056.31
2023-04-16T19:14:51.356Z,97057.38
2023-04-16T19:16:56.278Z,97055.00
2023-04-16T19:19:01.087Z,97052.63
2023-04-16T19:21:10.901Z,97054.72
2023-04-16T19:23:15.853Z,97050.75
2023-04-16T19:25:20.738Z,97051.28
2023-04-16T19:27:25.549Z,97051.53
2023-04-16T19:29:30.727Z,97055.75
2023-04-16T19:31:36.162Z,97064.47
2023-04-16T19:33:41.335Z,97051.28
2023-04-16T19:35:46.229Z,97059.19
2023-04-16T19:37:56.375Z,97063.69
2023-04-16T19:40:02.281Z,97060.25
2023-04-16T19:42:07.609Z,97066.31
2023-04-16T19:44:12.511Z,97063.94
2023-04-16T19:46:18.031Z,97065.00
2023-04-16T19:48:23.025Z,97067.13
2023-04-16T19:50:27.817Z,97069.75
2023-04-16T19:52:37.463Z,97073.44
2023-04-16T19:54:45.526Z,97064.75
2023-04-16T19:56:52.003Z,97065.00
2023-04-16T19:58:56.949Z,97067.09
2023-04-16T20:01:01.933Z,97072.91
2023-04-16T20:03:08.314Z,97070.53
2023-04-16T20:05:13.880Z,97070.78
2023-04-16T20:07:18.825Z,97074.47
2023-04-16T20:09:23.584Z,97068.69
2023-04-16T20:11:31.147Z,97060.22
2023-04-16T20:13:37.761Z,97066.56
2023-04-16T20:15:42.537Z,97067.63
2023-04-16T20:17:47.521Z,97066.03
2023-04-16T20:19:52.493Z,97075.00
2023-04-16T20:21:57.317Z,97070.78
2023-04-16T20:24:02.388Z,97077.34
2023-04-16T20:26:07.563Z,97071.31
2023-04-16T20:28:16.418Z,97072.59
2023-04-16T20:30:22.709Z,97079.75
2023-04-16T20:32:28.119Z,97071.81
2023-04-16T20:34:36.709Z,97076.84
2023-04-16T20:36:41.504Z,97074.47
2023-04-16T20:38:46.757Z,97077.09
2023-04-16T20:41:06.453Z,97072.09
2023-04-16T20:43:14.502Z,97071.81
2023-04-16T20:45:22.390Z,97072.34
2023-04-16T20:47:27.319Z,97074.97
2023-04-16T20:49:34.736Z,97071.00
2023-04-16T20:51:39.500Z,97066.25
2023-04-16T20:53:44.196Z,97071.78
2023-04-16T20:55:49.033Z,97072.84
2023-04-16T20:57:53.839Z,97070.47
2023-04-16T20:59:58.650Z,97076.00
2023-04-16T21:02:06.169Z,97069.38
2023-04-16T21:04:11.423Z,97069.66
2023-04-16T21:06:18.067Z,97066.50
2023-04-16T21:08:23.228Z,97065.16
2023-04-16T21:10:28.032Z,97073.59
2023-04-16T21:12:32.955Z,97068.06
2023-04-16T21:14:37.710Z,97069.38
2023-04-16T21:16:42.476Z,97072.53
2023-04-16T21:18:49.811Z,97071.19
2023-04-16T21:20:54.565Z,97071.19
2023-04-16T21:22:59.491Z,97065.41
2023-04-16T21:25:04.660Z,97066.97
2023-04-16T21:27:09.395Z,97071.41
2023-04-16T21:29:14.317Z,97065.88
2023-04-16T21:31:19.321Z,97070.63
2023-04-16T21:33:24.110Z,97069.56
2023-04-16T21:35:31.531Z,97076.91
2023-04-16T21:37:36.660Z,97072.16
2023-04-16T21:39:41.395Z,97071.63
2023-04-16T21:41:46.277Z,97081.34
2023-04-16T21:43:51.045Z,97085.06
2023-04-16T21:45:56.354Z,97085.31
2023-04-16T21:48:01.129Z,97082.41
2023-04-16T21:50:06.497Z,97084.00
2023-04-16T21:52:14.431Z,97087.44
2023-04-16T21:54:20.841Z,97091.09
2023-04-16T21:56:26.044Z,97089.03
2023-04-16T21:58:31.174Z,97090.59
2023-04-16T22:00:36.085Z,97090.59
2023-04-16T22:04:46.515Z,97086.63
2023-04-16T22:06:55.947Z,97081.34
2023-04-16T22:09:03.270Z,97075.56
2023-04-16T22:11:08.160Z,97073.97
2023-04-16T22:13:13.926Z,97071.84
2023-04-16T22:15:18.950Z,97070.53
2023-04-16T22:17:23.887Z,97070.25
2023-04-16T22:19:28.857Z,97070.50
2023-04-16T22:21:34.152Z,97072.34
2023-04-16T22:23:39.328Z,97073.41
2023-04-16T22:25:46.754Z,97074.19
2023-04-16T22:27:51.722Z,97077.63
2023-04-16T22:29:56.497Z,97070.50
2023-04-16T22:32:02.066Z,97065.00
2023-04-16T22:34:07.163Z,97063.13
2023-04-16T22:36:12.450Z,97059.47
2023-04-16T22:38:17.406Z,97063.13
2023-04-16T22:40:22.201Z,97060.50
2023-04-16T22:42:30.207Z,97059.72
2023-04-16T22:44:34.974Z,97053.69
2023-04-16T22:46:39.723Z,97058.38
2023-04-16T22:48:44.488Z,97058.66
2023-04-16T22:50:51.151Z,97060.50
2023-04-16T22:52:56.100Z,97063.38
2023-04-16T22:55:00.828Z,97064.16
2023-04-16T22:57:05.553Z,97064.16
2023-04-16T22:59:13.234Z,97056.78
2023-04-16T23:01:19.559Z,97064.16
2023-04-16T23:03:24.396Z,97062.81
2023-04-16T23:05:29.473Z,97064.13
2023-04-16T23:07:34.239Z,97063.59
2023-04-16T23:09:39.033Z,97069.91
2023-04-16T23:11:43.744Z,97072.53
2023-04-16T23:13:48.530Z,97069.91
2023-04-16T23:15:55.999Z,97063.84
2023-04-16T23:18:01.131Z,97070.69
2023-04-16T23:20:08.161Z,97075.16
2023-04-16T23:22:12.903Z,97068.31
2023-04-16T23:24:17.632Z,97067.78
2023-04-16T23:26:22.510Z,97074.34
2023-04-16T23:28:27.479Z,97068.53
2023-04-16T23:30:32.237Z,97067.22
2023-04-16T23:32:39.644Z,97066.91
2023-04-16T23:34:44.605Z,97066.38
2023-04-16T23:36:49.287Z,97061.88
2023-04-16T23:38:54.092Z,97062.88
2023-04-16T23:40:58.922Z,97071.28
2023-04-16T23:43:03.748Z,97060.19
2023-04-16T23:45:09.586Z,97058.34
2023-04-16T23:47:14.378Z,97059.16
2023-04-16T23:49:21.680Z,97055.97
2023-04-16T23:51:26.788Z,97066.25
2023-04-16T23:53:31.648Z,97058.34
2023-04-16T23:55:36.405Z,97057.31
2023-04-16T23:57:41.116Z,97053.09
2023-04-16T23:59:45.997Z,97056.53
